CGL791 LKTB-OOMS
Flight info
| Callsign | CGL791 |
|---|---|
| Flight time | 5h 33m |
| Altitude | 370 |
| Route | ODNEM A4 NIT/N0475F370 DCT ERGOM DCT ABONY DCT BUDOP/N0476F390 DCT RONBU DCT ARTAT UP975 ERGUN UL124 BONAM L319 DASDO L223 SIR/N0475F350 L223 TARDI N629 MUSUK |
| Aircraft | A332/H-SDE3GHIJ2J3J5M1RVWXY/LB2D1 |
Departure
| Time | 2026-04-22 11:05 |
|---|---|
| Airport | Brno-Tuřany Airport (LKTB) |
Arrival
| Time | 2026-04-22 16:39 |
|---|---|
| Airport | Muscat International Airport (OOMS) |
| Time | Latitude | Longitude | Altitude | Speed | Heading |
|---|---|---|---|---|---|
| 2026-04-22 11:01 | 49.15580 | 16.68660 | 788 ft | 0 kts | 98° |
| 2026-04-22 11:02 | 49.15579 | 16.68671 | 788 ft | 4 kts | 100° |
| 2026-04-22 11:02 | 49.15540 | 16.68738 | 788 ft | 11 kts | 161° |
| 2026-04-22 11:03 | 49.15461 | 16.68739 | 786 ft | 11 kts | 192° |
| 2026-04-22 11:03 | 49.15393 | 16.68687 | 785 ft | 12 kts | 246° |
| 2026-04-22 11:03 | 49.15394 | 16.68532 | 785 ft | 16 kts | 276° |
| 2026-04-22 11:03 | 49.15411 | 16.68332 | 782 ft | 21 kts | 278° |
| 2026-04-22 11:04 | 49.15435 | 16.68072 | 777 ft | 27 kts | 278° |
| 2026-04-22 11:04 | 49.15462 | 16.67763 | 772 ft | 23 kts | 278° |
| 2026-04-22 11:04 | 49.15385 | 16.67625 | 770 ft | 18 kts | 189° |
| 2026-04-22 11:04 | 49.15281 | 16.67686 | 770 ft | 22 kts | 104° |
| 2026-04-22 11:05 | 49.15244 | 16.68119 | 777 ft | 68 kts | 98° |
| 2026-04-22 11:05 | 49.15152 | 16.69167 | 780 ft | 128 kts | 98° |
| 2026-04-22 11:05 | 49.15006 | 16.70812 | 842 ft | 178 kts | 98° |
| 2026-04-22 11:05 | 49.14846 | 16.72595 | 1633 ft | 166 kts | 98° |
| 2026-04-22 11:06 | 49.14698 | 16.74353 | 2011 ft | 172 kts | 97° |
| 2026-04-22 11:06 | 49.14532 | 16.76291 | 2213 ft | 191 kts | 98° |
| 2026-04-22 11:06 | 49.14130 | 16.78325 | 2375 ft | 213 kts | 125° |
| 2026-04-22 11:06 | 49.13020 | 16.80025 | 2509 ft | 241 kts | 141° |
| 2026-04-22 11:07 | 49.11679 | 16.81751 | 2759 ft | 263 kts | 139° |
| 2026-04-22 11:07 | 49.10301 | 16.83613 | 3399 ft | 264 kts | 139° |
| 2026-04-22 11:07 | 49.08929 | 16.85446 | 4101 ft | 266 kts | 139° |
| 2026-04-22 11:07 | 49.07533 | 16.87305 | 4836 ft | 268 kts | 139° |
| 2026-04-22 11:08 | 49.06128 | 16.89176 | 5575 ft | 271 kts | 139° |
| 2026-04-22 11:08 | 49.04709 | 16.91062 | 6304 ft | 274 kts | 139° |
| 2026-04-22 11:08 | 49.03282 | 16.92959 | 7016 ft | 277 kts | 139° |
| 2026-04-22 11:08 | 49.01813 | 16.94910 | 7737 ft | 279 kts | 139° |
| 2026-04-22 11:09 | 49.00352 | 16.96851 | 8437 ft | 282 kts | 139° |
| 2026-04-22 11:09 | 48.98864 | 16.98828 | 9133 ft | 285 kts | 139° |
| 2026-04-22 11:09 | 48.97377 | 17.00802 | 9810 ft | 288 kts | 139° |
| 2026-04-22 11:09 | 48.95829 | 17.02858 | 10120 ft | 306 kts | 139° |
| 2026-04-22 11:10 | 48.94160 | 17.05073 | 10301 ft | 328 kts | 139° |
| 2026-04-22 11:10 | 48.92388 | 17.07424 | 10545 ft | 349 kts | 139° |
| 2026-04-22 11:10 | 48.90494 | 17.09937 | 10790 ft | 369 kts | 139° |
| 2026-04-22 11:10 | 48.88535 | 17.12531 | 11241 ft | 376 kts | 139° |
| 2026-04-22 11:11 | 48.86559 | 17.15141 | 11869 ft | 379 kts | 139° |
| 2026-04-22 11:11 | 48.84645 | 17.17863 | 12550 ft | 382 kts | 134° |
| 2026-04-22 11:11 | 48.82820 | 17.20791 | 13261 ft | 386 kts | 133° |
| 2026-04-22 11:11 | 48.80940 | 17.23777 | 13987 ft | 389 kts | 134° |
| 2026-04-22 11:12 | 48.79082 | 17.26719 | 14681 ft | 393 kts | 133° |
| 2026-04-22 11:12 | 48.77178 | 17.29745 | 15371 ft | 397 kts | 133° |
| 2026-04-22 11:12 | 48.75274 | 17.32769 | 16040 ft | 401 kts | 133° |
| 2026-04-22 11:12 | 48.73325 | 17.35862 | 16705 ft | 405 kts | 133° |
| 2026-04-22 11:13 | 48.71351 | 17.38992 | 17351 ft | 409 kts | 133° |
| 2026-04-22 11:13 | 48.69379 | 17.42122 | 17982 ft | 413 kts | 133° |
| 2026-04-22 11:13 | 48.67388 | 17.45268 | 18593 ft | 416 kts | 133° |
| 2026-04-22 11:13 | 48.65379 | 17.48436 | 19190 ft | 420 kts | 133° |
| 2026-04-22 11:14 | 48.63332 | 17.51660 | 19783 ft | 424 kts | 133° |
| 2026-04-22 11:14 | 48.61288 | 17.54882 | 20355 ft | 427 kts | 133° |
| 2026-04-22 11:14 | 48.59234 | 17.58126 | 20910 ft | 431 kts | 133° |
| 2026-04-22 11:14 | 48.57134 | 17.61412 | 21459 ft | 434 kts | 133° |
| 2026-04-22 11:15 | 48.55015 | 17.64720 | 21996 ft | 438 kts | 133° |
| 2026-04-22 11:15 | 48.52804 | 17.68132 | 22533 ft | 441 kts | 135° |
| 2026-04-22 11:15 | 48.50722 | 17.71325 | 23022 ft | 445 kts | 134° |
| 2026-04-22 11:15 | 48.48558 | 17.74683 | 23517 ft | 448 kts | 134° |
| 2026-04-22 11:16 | 48.46376 | 17.78080 | 24003 ft | 451 kts | 134° |
| 2026-04-22 11:16 | 48.44207 | 17.81455 | 24470 ft | 454 kts | 134° |
| 2026-04-22 11:16 | 48.41994 | 17.84903 | 24931 ft | 457 kts | 134° |
| 2026-04-22 11:16 | 48.39771 | 17.88367 | 25380 ft | 460 kts | 134° |
| 2026-04-22 11:17 | 48.37553 | 17.91823 | 25816 ft | 463 kts | 134° |
| 2026-04-22 11:17 | 48.35322 | 17.95299 | 26242 ft | 466 kts | 134° |
| 2026-04-22 11:17 | 48.33054 | 17.98832 | 26660 ft | 469 kts | 134° |
| 2026-04-22 11:17 | 48.30769 | 18.02392 | 27069 ft | 472 kts | 134° |
| 2026-04-22 11:18 | 48.28452 | 18.05925 | 27468 ft | 475 kts | 136° |
| 2026-04-22 11:18 | 48.26083 | 18.09311 | 27851 ft | 478 kts | 136° |
| 2026-04-22 11:18 | 48.23662 | 18.12751 | 28230 ft | 481 kts | 136° |
| 2026-04-22 11:18 | 48.21204 | 18.16241 | 28604 ft | 483 kts | 136° |
| 2026-04-22 11:19 | 48.18782 | 18.19671 | 28989 ft | 483 kts | 136° |
| 2026-04-22 11:19 | 48.16318 | 18.23161 | 29381 ft | 482 kts | 136° |
| 2026-04-22 11:19 | 48.13909 | 18.26571 | 29760 ft | 481 kts | 136° |
| 2026-04-22 11:19 | 48.11461 | 18.30036 | 30141 ft | 481 kts | 136° |
| 2026-04-22 11:20 | 48.09021 | 18.33490 | 30515 ft | 480 kts | 136° |
| 2026-04-22 11:20 | 48.06630 | 18.36874 | 30875 ft | 479 kts | 136° |
| 2026-04-22 11:20 | 48.04182 | 18.40339 | 31220 ft | 479 kts | 136° |
| 2026-04-22 11:20 | 48.01781 | 18.43737 | 31564 ft | 479 kts | 136° |
| 2026-04-22 11:21 | 47.99345 | 18.47185 | 31908 ft | 478 kts | 136° |
| 2026-04-22 11:21 | 47.96950 | 18.50575 | 32241 ft | 477 kts | 136° |
| 2026-04-22 11:21 | 47.94537 | 18.53990 | 32570 ft | 477 kts | 136° |
| 2026-04-22 11:21 | 47.92139 | 18.57381 | 32890 ft | 476 kts | 136° |
| 2026-04-22 11:22 | 47.89762 | 18.60743 | 33201 ft | 475 kts | 136° |
| 2026-04-22 11:22 | 47.87374 | 18.64107 | 33504 ft | 475 kts | 136° |
| 2026-04-22 11:22 | 47.84977 | 18.67465 | 33800 ft | 474 kts | 137° |
| 2026-04-22 11:22 | 47.82548 | 18.70852 | 34090 ft | 473 kts | 136° |
| 2026-04-22 11:23 | 47.80374 | 18.74424 | 34349 ft | 473 kts | 125° |
| 2026-04-22 11:23 | 47.78584 | 18.78584 | 34620 ft | 472 kts | 122° |
| 2026-04-22 11:23 | 47.76852 | 18.82653 | 34880 ft | 472 kts | 123° |
| 2026-04-22 11:23 | 47.75071 | 18.86754 | 35137 ft | 471 kts | 123° |
| 2026-04-22 11:24 | 47.73299 | 18.90864 | 35388 ft | 471 kts | 123° |
| 2026-04-22 11:24 | 47.71531 | 18.94965 | 35632 ft | 470 kts | 122° |
| 2026-04-22 11:24 | 47.69794 | 18.98991 | 35864 ft | 470 kts | 122° |
| 2026-04-22 11:24 | 47.68032 | 19.03079 | 36093 ft | 469 kts | 122° |
| 2026-04-22 11:25 | 47.66288 | 19.07124 | 36307 ft | 469 kts | 122° |
| 2026-04-22 11:25 | 47.64530 | 19.11201 | 36511 ft | 469 kts | 122° |
| 2026-04-22 11:25 | 47.62774 | 19.15276 | 36706 ft | 469 kts | 122° |
| 2026-04-22 11:25 | 47.61002 | 19.19385 | 36895 ft | 469 kts | 122° |
| 2026-04-22 11:26 | 47.59242 | 19.23469 | 37033 ft | 474 kts | 122° |
| 2026-04-22 11:26 | 47.55690 | 19.31708 | 36995 ft | 476 kts | 122° |
| 2026-04-22 11:27 | 47.52121 | 19.39985 | 37001 ft | 474 kts | 122° |
| 2026-04-22 11:27 | 47.48590 | 19.48174 | 37001 ft | 474 kts | 122° |
| 2026-04-22 11:28 | 47.45052 | 19.56380 | 37001 ft | 474 kts | 122° |
| 2026-04-22 11:28 | 47.41505 | 19.64604 | 37001 ft | 474 kts | 122° |
| 2026-04-22 11:29 | 47.37948 | 19.72735 | 37001 ft | 474 kts | 123° |
| 2026-04-22 11:29 | 47.34404 | 19.80941 | 37001 ft | 474 kts | 122° |
| 2026-04-22 11:30 | 47.30870 | 19.89135 | 37001 ft | 474 kts | 122° |
| 2026-04-22 11:30 | 47.27349 | 19.97324 | 37000 ft | 474 kts | 121° |
| 2026-04-22 11:31 | 47.24142 | 20.05740 | 37001 ft | 474 kts | 119° |
| 2026-04-22 11:31 | 47.20888 | 20.14217 | 37001 ft | 474 kts | 119° |
| 2026-04-22 11:32 | 47.17649 | 20.22651 | 37001 ft | 474 kts | 119° |
| 2026-04-22 11:32 | 47.14413 | 20.31076 | 37001 ft | 474 kts | 119° |
| 2026-04-22 11:33 | 47.11188 | 20.39472 | 37001 ft | 474 kts | 119° |
| 2026-04-22 11:33 | 47.07964 | 20.47865 | 37001 ft | 474 kts | 119° |
| 2026-04-22 11:34 | 47.04716 | 20.56319 | 37001 ft | 474 kts | 119° |
| 2026-04-22 11:34 | 47.01505 | 20.64676 | 37001 ft | 474 kts | 119° |
| 2026-04-22 11:35 | 46.98220 | 20.73094 | 37001 ft | 474 kts | 120° |
| 2026-04-22 11:35 | 46.94989 | 20.81477 | 37001 ft | 474 kts | 120° |
| 2026-04-22 11:36 | 46.91763 | 20.89869 | 37001 ft | 474 kts | 119° |
| 2026-04-22 11:36 | 46.88537 | 20.98253 | 37001 ft | 474 kts | 119° |
| 2026-04-22 11:37 | 46.85289 | 21.06679 | 37001 ft | 474 kts | 119° |
| 2026-04-22 11:37 | 46.82070 | 21.15055 | 37001 ft | 474 kts | 119° |
| 2026-04-22 11:38 | 46.78845 | 21.23447 | 37001 ft | 474 kts | 119° |
| 2026-04-22 11:38 | 46.74038 | 21.35957 | 37001 ft | 474 kts | 119° |
| 2026-04-22 11:39 | 46.70807 | 21.44354 | 37001 ft | 474 kts | 119° |
| 2026-04-22 11:39 | 46.67399 | 21.52567 | 37003 ft | 474 kts | 126° |
| 2026-04-22 11:40 | 46.63450 | 21.60246 | 37000 ft | 474 kts | 127° |
| 2026-04-22 11:40 | 46.59449 | 21.67861 | 37001 ft | 474 kts | 128° |
| 2026-04-22 11:41 | 46.55436 | 21.75397 | 37001 ft | 474 kts | 128° |
| 2026-04-22 11:41 | 46.51411 | 21.83026 | 37001 ft | 474 kts | 127° |
| 2026-04-22 11:42 | 46.47422 | 21.90598 | 37001 ft | 474 kts | 127° |
| 2026-04-22 11:42 | 46.43433 | 21.98169 | 37001 ft | 474 kts | 127° |
| 2026-04-22 11:43 | 46.39444 | 22.05744 | 37001 ft | 474 kts | 127° |
| 2026-04-22 11:43 | 46.35440 | 22.13344 | 37001 ft | 474 kts | 127° |
| 2026-04-22 11:44 | 46.31457 | 22.20906 | 37001 ft | 474 kts | 127° |
| 2026-04-22 11:44 | 46.27451 | 22.28510 | 37001 ft | 474 kts | 127° |
| 2026-04-22 11:45 | 46.23477 | 22.36055 | 37001 ft | 474 kts | 127° |
| 2026-04-22 11:45 | 46.19493 | 22.43619 | 37001 ft | 474 kts | 127° |
| 2026-04-22 11:46 | 46.15504 | 22.51193 | 37001 ft | 474 kts | 127° |
| 2026-04-22 11:46 | 46.11519 | 22.58757 | 37001 ft | 474 kts | 127° |
| 2026-04-22 11:47 | 46.07523 | 22.66338 | 37001 ft | 474 kts | 128° |
| 2026-04-22 11:47 | 46.03507 | 22.73855 | 37001 ft | 474 kts | 127° |
| 2026-04-22 11:48 | 45.99507 | 22.81433 | 37001 ft | 474 kts | 127° |
| 2026-04-22 11:48 | 45.95530 | 22.88980 | 37001 ft | 474 kts | 127° |
| 2026-04-22 11:49 | 45.91587 | 22.96463 | 37001 ft | 474 kts | 127° |
| 2026-04-22 11:49 | 45.87597 | 23.04022 | 37001 ft | 474 kts | 127° |
| 2026-04-22 11:50 | 45.83599 | 23.11593 | 37001 ft | 474 kts | 127° |
| 2026-04-22 11:50 | 45.79637 | 23.19113 | 37001 ft | 474 kts | 127° |
| 2026-04-22 11:51 | 45.75677 | 23.26629 | 37001 ft | 474 kts | 127° |
| 2026-04-22 11:51 | 45.71704 | 23.34170 | 37001 ft | 474 kts | 127° |
| 2026-04-22 11:52 | 45.67727 | 23.41720 | 37001 ft | 474 kts | 127° |
| 2026-04-22 11:52 | 45.63777 | 23.49219 | 37001 ft | 474 kts | 127° |
| 2026-04-22 11:53 | 45.59812 | 23.56747 | 37001 ft | 474 kts | 126° |
| 2026-04-22 11:53 | 45.55856 | 23.64257 | 37001 ft | 474 kts | 126° |
| 2026-04-22 11:54 | 45.51875 | 23.71719 | 37001 ft | 474 kts | 127° |
| 2026-04-22 11:54 | 45.47902 | 23.79235 | 37001 ft | 474 kts | 127° |
| 2026-04-22 11:55 | 45.43959 | 23.86713 | 37001 ft | 474 kts | 127° |
| 2026-04-22 11:55 | 45.39997 | 23.94234 | 37001 ft | 474 kts | 127° |
| 2026-04-22 11:56 | 45.36050 | 24.01727 | 37001 ft | 474 kts | 127° |
| 2026-04-22 11:56 | 45.32100 | 24.09226 | 37001 ft | 474 kts | 127° |
| 2026-04-22 11:57 | 45.28156 | 24.16713 | 37001 ft | 474 kts | 127° |
| 2026-04-22 11:57 | 45.24207 | 24.24209 | 37001 ft | 474 kts | 127° |
| 2026-04-22 11:58 | 45.20260 | 24.31703 | 37001 ft | 474 kts | 126° |
| 2026-04-22 11:58 | 45.16305 | 24.39210 | 37001 ft | 474 kts | 126° |
| 2026-04-22 11:59 | 45.12367 | 24.46687 | 37001 ft | 474 kts | 126° |
| 2026-04-22 11:59 | 45.08441 | 24.54139 | 37001 ft | 474 kts | 126° |
| 2026-04-22 12:00 | 45.04483 | 24.61654 | 37001 ft | 474 kts | 126° |
| 2026-04-22 12:00 | 45.00546 | 24.69075 | 37001 ft | 474 kts | 127° |
| 2026-04-22 12:01 | 44.96570 | 24.76558 | 37001 ft | 474 kts | 127° |
| 2026-04-22 12:01 | 44.92667 | 24.83958 | 37001 ft | 474 kts | 127° |
| 2026-04-22 12:02 | 44.88724 | 24.91436 | 37001 ft | 474 kts | 127° |
| 2026-04-22 12:02 | 44.84764 | 24.98928 | 37001 ft | 474 kts | 127° |
| 2026-04-22 12:03 | 44.80843 | 25.06367 | 37001 ft | 474 kts | 126° |
| 2026-04-22 12:03 | 44.76912 | 25.13828 | 37001 ft | 474 kts | 126° |
| 2026-04-22 12:04 | 44.72998 | 25.21258 | 37001 ft | 474 kts | 126° |
| 2026-04-22 12:04 | 44.69091 | 25.28675 | 37001 ft | 474 kts | 126° |
| 2026-04-22 12:05 | 44.65148 | 25.36161 | 37001 ft | 474 kts | 126° |
| 2026-04-22 12:05 | 44.61235 | 25.43589 | 37001 ft | 474 kts | 126° |
| 2026-04-22 12:06 | 44.57320 | 25.51021 | 37001 ft | 474 kts | 126° |
| 2026-04-22 12:06 | 44.53400 | 25.58462 | 37001 ft | 474 kts | 126° |
| 2026-04-22 12:07 | 44.49496 | 25.65871 | 37001 ft | 474 kts | 127° |
| 2026-04-22 12:07 | 44.45564 | 25.73232 | 37001 ft | 474 kts | 127° |
| 2026-04-22 12:08 | 44.41671 | 25.80609 | 37001 ft | 474 kts | 127° |
| 2026-04-22 12:08 | 44.37758 | 25.88035 | 37001 ft | 474 kts | 126° |
| 2026-04-22 12:09 | 44.33853 | 25.95448 | 37001 ft | 474 kts | 126° |
| 2026-04-22 12:09 | 44.29968 | 26.02821 | 37001 ft | 474 kts | 126° |
| 2026-04-22 12:10 | 44.26071 | 26.10217 | 37001 ft | 474 kts | 126° |
| 2026-04-22 12:10 | 44.22149 | 26.17663 | 37001 ft | 474 kts | 126° |
| 2026-04-22 12:11 | 44.18274 | 26.25017 | 37001 ft | 474 kts | 126° |
| 2026-04-22 12:11 | 44.14381 | 26.32403 | 37001 ft | 474 kts | 126° |
| 2026-04-22 12:12 | 44.10495 | 26.39772 | 37001 ft | 474 kts | 126° |
| 2026-04-22 12:12 | 44.06586 | 26.47177 | 37001 ft | 474 kts | 126° |
| 2026-04-22 12:13 | 44.02766 | 26.54556 | 37001 ft | 474 kts | 126° |
| 2026-04-22 12:13 | 43.98850 | 26.61891 | 37001 ft | 474 kts | 126° |
| 2026-04-22 12:14 | 43.94865 | 26.69233 | 37001 ft | 474 kts | 127° |
| 2026-04-22 12:14 | 43.90929 | 26.76472 | 37001 ft | 474 kts | 127° |
| 2026-04-22 12:15 | 43.86958 | 26.83799 | 37001 ft | 474 kts | 127° |
| 2026-04-22 12:15 | 43.83011 | 26.91100 | 37001 ft | 474 kts | 127° |
| 2026-04-22 12:16 | 43.79071 | 26.98396 | 37001 ft | 474 kts | 127° |
| 2026-04-22 12:16 | 43.75144 | 27.05673 | 37001 ft | 474 kts | 127° |
| 2026-04-22 12:17 | 43.71180 | 27.13018 | 37001 ft | 474 kts | 127° |
| 2026-04-22 12:17 | 43.67242 | 27.20314 | 37001 ft | 474 kts | 127° |
| 2026-04-22 12:18 | 43.63291 | 27.27633 | 37001 ft | 474 kts | 126° |
| 2026-04-22 12:18 | 43.59366 | 27.34906 | 37001 ft | 474 kts | 126° |
| 2026-04-22 12:19 | 43.55421 | 27.42214 | 37001 ft | 474 kts | 126° |
| 2026-04-22 12:19 | 43.51497 | 27.49486 | 37001 ft | 474 kts | 126° |
| 2026-04-22 12:20 | 43.47572 | 27.56759 | 37001 ft | 474 kts | 126° |
| 2026-04-22 12:20 | 43.43637 | 27.64050 | 37001 ft | 474 kts | 126° |
| 2026-04-22 12:21 | 43.39685 | 27.71286 | 37001 ft | 474 kts | 127° |
| 2026-04-22 12:21 | 43.35730 | 27.78585 | 37001 ft | 474 kts | 127° |
| 2026-04-22 12:22 | 43.31793 | 27.85876 | 37001 ft | 474 kts | 127° |
| 2026-04-22 12:22 | 43.27880 | 27.93124 | 37001 ft | 474 kts | 127° |
| 2026-04-22 12:23 | 43.23948 | 28.00408 | 37001 ft | 474 kts | 126° |
| 2026-04-22 12:23 | 43.20042 | 28.07646 | 37001 ft | 474 kts | 126° |
| 2026-04-22 12:24 | 43.16133 | 28.14889 | 37001 ft | 474 kts | 126° |
| 2026-04-22 12:24 | 43.12200 | 28.22177 | 37001 ft | 474 kts | 126° |
| 2026-04-22 12:25 | 43.08300 | 28.29402 | 37001 ft | 474 kts | 126° |
| 2026-04-22 12:25 | 43.04390 | 28.36647 | 37001 ft | 474 kts | 126° |
| 2026-04-22 12:26 | 43.00475 | 28.43900 | 37001 ft | 474 kts | 126° |
| 2026-04-22 12:26 | 42.96562 | 28.51150 | 37001 ft | 474 kts | 126° |
| 2026-04-22 12:27 | 42.92662 | 28.58374 | 37001 ft | 474 kts | 126° |
| 2026-04-22 12:27 | 42.88731 | 28.65654 | 37001 ft | 474 kts | 127° |
| 2026-04-22 12:28 | 42.84807 | 28.72800 | 37001 ft | 474 kts | 127° |
| 2026-04-22 12:28 | 42.80886 | 28.80047 | 37001 ft | 474 kts | 126° |
| 2026-04-22 12:29 | 42.76997 | 28.87250 | 37001 ft | 474 kts | 126° |
| 2026-04-22 12:29 | 42.73100 | 28.94469 | 37001 ft | 474 kts | 126° |
| 2026-04-22 12:30 | 42.67268 | 29.05273 | 37001 ft | 474 kts | 126° |
| 2026-04-22 12:31 | 42.63385 | 29.12467 | 37001 ft | 474 kts | 126° |
| 2026-04-22 12:31 | 42.59508 | 29.19649 | 37001 ft | 474 kts | 126° |
| 2026-04-22 12:32 | 42.55608 | 29.26876 | 37001 ft | 474 kts | 126° |
| 2026-04-22 12:32 | 42.49786 | 29.37661 | 37001 ft | 474 kts | 126° |
| 2026-04-22 12:33 | 42.45895 | 29.44866 | 37001 ft | 474 kts | 126° |
| 2026-04-22 12:33 | 42.42009 | 29.52060 | 37001 ft | 474 kts | 126° |
| 2026-04-22 12:34 | 42.38122 | 29.59246 | 37001 ft | 474 kts | 126° |
| 2026-04-22 12:34 | 42.36395 | 29.62967 | 37005 ft | 473 kts | 114° |
| 2026-04-22 12:34 | 42.35230 | 29.67166 | 37000 ft | 475 kts | 109° |
| 2026-04-22 12:35 | 42.33017 | 29.75553 | 37001 ft | 474 kts | 110° |
| 2026-04-22 12:35 | 42.30825 | 29.83964 | 37001 ft | 474 kts | 109° |
| 2026-04-22 12:36 | 42.28645 | 29.92358 | 37001 ft | 474 kts | 109° |
| 2026-04-22 12:36 | 42.26476 | 30.00713 | 37001 ft | 474 kts | 109° |
| 2026-04-22 12:37 | 42.24298 | 30.09108 | 37001 ft | 474 kts | 109° |
| 2026-04-22 12:37 | 42.22111 | 30.17533 | 37001 ft | 474 kts | 109° |
| 2026-04-22 12:38 | 42.19938 | 30.25906 | 37001 ft | 474 kts | 109° |
| 2026-04-22 12:38 | 42.17755 | 30.34314 | 37001 ft | 474 kts | 109° |
| 2026-04-22 12:39 | 42.14498 | 30.46866 | 37001 ft | 474 kts | 109° |
| 2026-04-22 12:40 | 42.12328 | 30.55223 | 37001 ft | 474 kts | 109° |
| 2026-04-22 12:40 | 42.10161 | 30.63568 | 37001 ft | 474 kts | 109° |
| 2026-04-22 12:41 | 42.07950 | 30.71928 | 37001 ft | 474 kts | 110° |
| 2026-04-22 12:41 | 42.05777 | 30.80264 | 37001 ft | 474 kts | 109° |
| 2026-04-22 12:42 | 42.03592 | 30.88674 | 37001 ft | 474 kts | 109° |
| 2026-04-22 12:42 | 42.01419 | 30.97046 | 37001 ft | 474 kts | 109° |
| 2026-04-22 12:43 | 41.99248 | 31.05334 | 37001 ft | 474 kts | 110° |
| 2026-04-22 12:43 | 41.97001 | 31.13695 | 37001 ft | 474 kts | 110° |
| 2026-04-22 12:44 | 41.94766 | 31.21976 | 37001 ft | 474 kts | 110° |
| 2026-04-22 12:44 | 41.92520 | 31.30298 | 37001 ft | 474 kts | 110° |
| 2026-04-22 12:45 | 41.90273 | 31.38617 | 37001 ft | 474 kts | 110° |
| 2026-04-22 12:45 | 41.88023 | 31.46900 | 37001 ft | 474 kts | 109° |
| 2026-04-22 12:46 | 41.85766 | 31.55248 | 37001 ft | 474 kts | 109° |
| 2026-04-22 12:46 | 41.83517 | 31.63547 | 37001 ft | 474 kts | 109° |
| 2026-04-22 12:47 | 41.81213 | 31.71858 | 37001 ft | 474 kts | 110° |
| 2026-04-22 12:47 | 41.78937 | 31.80104 | 37001 ft | 474 kts | 110° |
| 2026-04-22 12:48 | 41.76647 | 31.88363 | 37001 ft | 474 kts | 110° |
| 2026-04-22 12:48 | 41.74356 | 31.96627 | 37001 ft | 474 kts | 110° |
| 2026-04-22 12:49 | 41.72063 | 32.04899 | 37001 ft | 474 kts | 110° |
| 2026-04-22 12:49 | 41.69769 | 32.13172 | 37001 ft | 474 kts | 110° |
| 2026-04-22 12:50 | 41.67461 | 32.21442 | 37001 ft | 474 kts | 110° |
| 2026-04-22 12:50 | 41.65173 | 32.29647 | 37001 ft | 474 kts | 110° |
| 2026-04-22 12:51 | 41.62849 | 32.37931 | 37001 ft | 474 kts | 110° |
| 2026-04-22 12:51 | 41.60525 | 32.46148 | 37001 ft | 474 kts | 110° |
| 2026-04-22 12:52 | 41.58210 | 32.54343 | 37001 ft | 474 kts | 110° |
| 2026-04-22 12:52 | 41.55852 | 32.62630 | 37001 ft | 474 kts | 110° |
| 2026-04-22 12:53 | 41.53477 | 32.70828 | 37001 ft | 474 kts | 111° |
| 2026-04-22 12:53 | 41.51127 | 32.79005 | 37001 ft | 474 kts | 111° |
| 2026-04-22 12:54 | 41.48772 | 32.87239 | 37001 ft | 474 kts | 111° |
| 2026-04-22 12:54 | 41.46436 | 32.95416 | 37001 ft | 474 kts | 111° |
| 2026-04-22 12:55 | 41.43679 | 33.03386 | 37004 ft | 474 kts | 120° |
| 2026-04-22 12:55 | 41.40476 | 33.10997 | 37000 ft | 474 kts | 118° |
| 2026-04-22 12:56 | 41.37288 | 33.18667 | 37001 ft | 474 kts | 119° |
| 2026-04-22 12:56 | 41.34124 | 33.26362 | 37001 ft | 474 kts | 118° |
| 2026-04-22 12:57 | 41.31004 | 33.34122 | 37001 ft | 474 kts | 118° |
| 2026-04-22 12:57 | 41.27913 | 33.41876 | 37001 ft | 474 kts | 117° |
| 2026-04-22 12:58 | 41.24825 | 33.49603 | 37001 ft | 474 kts | 118° |
| 2026-04-22 12:58 | 41.21729 | 33.57296 | 37001 ft | 474 kts | 118° |
| 2026-04-22 12:59 | 41.18619 | 33.65015 | 37001 ft | 474 kts | 118° |
| 2026-04-22 12:59 | 41.15480 | 33.72691 | 37001 ft | 474 kts | 118° |
| 2026-04-22 13:00 | 41.12369 | 33.80391 | 37001 ft | 474 kts | 118° |
| 2026-04-22 13:00 | 41.09258 | 33.88104 | 37001 ft | 474 kts | 118° |
| 2026-04-22 13:01 | 41.06161 | 33.95790 | 37001 ft | 474 kts | 118° |
| 2026-04-22 13:01 | 41.03056 | 34.03494 | 37001 ft | 474 kts | 118° |
| 2026-04-22 13:02 | 40.99947 | 34.11208 | 37001 ft | 474 kts | 118° |
| 2026-04-22 13:02 | 40.96847 | 34.18901 | 37001 ft | 474 kts | 118° |
| 2026-04-22 13:03 | 40.93763 | 34.26556 | 37001 ft | 474 kts | 118° |
| 2026-04-22 13:03 | 40.90651 | 34.34277 | 37001 ft | 474 kts | 118° |
| 2026-04-22 13:04 | 40.87565 | 34.41902 | 37001 ft | 474 kts | 118° |
| 2026-04-22 13:04 | 40.84441 | 34.49640 | 37001 ft | 474 kts | 117° |
| 2026-04-22 13:05 | 40.81363 | 34.57274 | 37001 ft | 474 kts | 117° |
| 2026-04-22 13:05 | 40.78263 | 34.64959 | 37001 ft | 474 kts | 117° |
| 2026-04-22 13:06 | 40.75146 | 34.72624 | 37000 ft | 474 kts | 116° |
| 2026-04-22 13:06 | 40.73069 | 34.80872 | 37000 ft | 475 kts | 107° |
| 2026-04-22 13:07 | 40.71119 | 34.89211 | 37001 ft | 474 kts | 107° |
| 2026-04-22 13:07 | 40.69180 | 34.97504 | 37000 ft | 474 kts | 107° |
| 2026-04-22 13:08 | 40.67238 | 35.05801 | 37001 ft | 474 kts | 107° |
| 2026-04-22 13:08 | 40.65296 | 35.14097 | 37001 ft | 474 kts | 107° |
| 2026-04-22 13:09 | 40.63353 | 35.22398 | 37001 ft | 474 kts | 107° |
| 2026-04-22 13:09 | 40.61409 | 35.30701 | 37001 ft | 474 kts | 107° |
| 2026-04-22 13:10 | 40.59479 | 35.38945 | 37001 ft | 474 kts | 107° |
| 2026-04-22 13:10 | 40.57541 | 35.47226 | 37001 ft | 474 kts | 107° |
| 2026-04-22 13:11 | 40.55594 | 35.55541 | 37001 ft | 474 kts | 107° |
| 2026-04-22 13:11 | 40.53660 | 35.63801 | 37001 ft | 474 kts | 107° |
| 2026-04-22 13:12 | 40.51690 | 35.72049 | 37001 ft | 474 kts | 107° |
| 2026-04-22 13:12 | 40.49740 | 35.80327 | 37001 ft | 474 kts | 107° |
| 2026-04-22 13:13 | 40.47798 | 35.88608 | 37001 ft | 474 kts | 107° |
| 2026-04-22 13:13 | 40.46018 | 35.96210 | 37001 ft | 474 kts | 107° |
| 2026-04-22 13:14 | 40.44083 | 36.04477 | 37001 ft | 474 kts | 107° |
| 2026-04-22 13:14 | 40.42139 | 36.12779 | 37001 ft | 474 kts | 107° |
| 2026-04-22 13:15 | 40.40202 | 36.21053 | 37001 ft | 474 kts | 107° |
| 2026-04-22 13:15 | 40.38277 | 36.29279 | 37001 ft | 474 kts | 107° |
| 2026-04-22 13:16 | 40.36342 | 36.37546 | 37001 ft | 474 kts | 107° |
| 2026-04-22 13:16 | 40.34406 | 36.45811 | 37001 ft | 474 kts | 107° |
| 2026-04-22 13:17 | 40.32462 | 36.54116 | 37001 ft | 474 kts | 107° |
| 2026-04-22 13:17 | 40.30530 | 36.62365 | 37001 ft | 474 kts | 107° |
| 2026-04-22 13:18 | 40.28582 | 36.70555 | 37001 ft | 474 kts | 108° |
| 2026-04-22 13:18 | 40.26622 | 36.78846 | 37001 ft | 474 kts | 107° |
| 2026-04-22 13:19 | 40.24685 | 36.87107 | 37001 ft | 474 kts | 107° |
| 2026-04-22 13:19 | 40.22753 | 36.95358 | 37001 ft | 474 kts | 107° |
| 2026-04-22 13:20 | 40.20826 | 37.03589 | 37001 ft | 474 kts | 107° |
| 2026-04-22 13:20 | 40.18894 | 37.11838 | 37001 ft | 474 kts | 107° |
| 2026-04-22 13:21 | 40.16965 | 37.20076 | 37001 ft | 474 kts | 107° |
| 2026-04-22 13:21 | 40.15027 | 37.28348 | 37001 ft | 474 kts | 107° |
| 2026-04-22 13:22 | 40.13098 | 37.36585 | 37001 ft | 474 kts | 107° |
| 2026-04-22 13:22 | 40.11169 | 37.44810 | 37001 ft | 474 kts | 107° |
| 2026-04-22 13:23 | 40.09240 | 37.53019 | 37001 ft | 474 kts | 107° |
| 2026-04-22 13:23 | 40.07128 | 37.61140 | 37001 ft | 474 kts | 111° |
| 2026-04-22 13:24 | 40.04716 | 37.69170 | 37001 ft | 474 kts | 112° |
| 2026-04-22 13:24 | 40.02298 | 37.77139 | 37001 ft | 474 kts | 111° |
| 2026-04-22 13:25 | 39.99890 | 37.85133 | 37001 ft | 474 kts | 111° |
| 2026-04-22 13:25 | 39.97483 | 37.93135 | 37001 ft | 474 kts | 111° |
| 2026-04-22 13:26 | 39.95073 | 38.01147 | 37001 ft | 474 kts | 111° |
| 2026-04-22 13:26 | 39.92679 | 38.09107 | 37001 ft | 474 kts | 111° |
| 2026-04-22 13:27 | 39.90263 | 38.17139 | 37001 ft | 474 kts | 111° |
| 2026-04-22 13:27 | 39.87844 | 38.25133 | 37001 ft | 474 kts | 111° |
| 2026-04-22 13:28 | 39.85450 | 38.33081 | 37001 ft | 474 kts | 111° |
| 2026-04-22 13:28 | 39.83044 | 38.41076 | 37001 ft | 474 kts | 111° |
| 2026-04-22 13:29 | 39.80642 | 38.49062 | 37001 ft | 474 kts | 111° |
| 2026-04-22 13:29 | 39.78240 | 38.57045 | 37001 ft | 474 kts | 111° |
| 2026-04-22 13:30 | 39.75852 | 38.64984 | 37001 ft | 474 kts | 111° |
| 2026-04-22 13:30 | 39.73416 | 38.72941 | 37001 ft | 474 kts | 111° |
| 2026-04-22 13:31 | 39.71017 | 38.80890 | 37001 ft | 474 kts | 111° |
| 2026-04-22 13:31 | 39.68623 | 38.88845 | 37001 ft | 474 kts | 111° |
| 2026-04-22 13:32 | 39.66213 | 38.96855 | 37001 ft | 474 kts | 111° |
| 2026-04-22 13:32 | 39.63830 | 39.04776 | 37001 ft | 474 kts | 111° |
| 2026-04-22 13:33 | 39.61423 | 39.12777 | 37001 ft | 474 kts | 111° |
| 2026-04-22 13:33 | 39.59039 | 39.20702 | 37001 ft | 474 kts | 111° |
| 2026-04-22 13:34 | 39.56637 | 39.28684 | 37001 ft | 474 kts | 111° |
| 2026-04-22 13:34 | 39.54236 | 39.36660 | 37001 ft | 474 kts | 111° |
| 2026-04-22 13:35 | 39.51852 | 39.44563 | 37001 ft | 474 kts | 111° |
| 2026-04-22 13:35 | 39.49695 | 39.52632 | 37000 ft | 474 kts | 108° |
| 2026-04-22 13:36 | 39.47596 | 39.60741 | 37001 ft | 474 kts | 108° |
| 2026-04-22 13:36 | 39.45480 | 39.68834 | 37001 ft | 474 kts | 109° |
| 2026-04-22 13:37 | 39.43357 | 39.76918 | 37001 ft | 474 kts | 109° |
| 2026-04-22 13:37 | 39.41262 | 39.84988 | 37001 ft | 474 kts | 109° |
| 2026-04-22 13:38 | 39.39165 | 39.93080 | 37001 ft | 474 kts | 108° |
| 2026-04-22 13:38 | 39.36024 | 40.05191 | 37001 ft | 474 kts | 108° |
| 2026-04-22 13:39 | 39.33926 | 40.13282 | 37001 ft | 474 kts | 108° |
| 2026-04-22 13:39 | 39.31843 | 40.21359 | 37001 ft | 474 kts | 108° |
| 2026-04-22 13:40 | 39.29695 | 40.29394 | 37001 ft | 474 kts | 109° |
| 2026-04-22 13:40 | 39.27511 | 40.37413 | 37001 ft | 474 kts | 109° |
| 2026-04-22 13:41 | 39.25321 | 40.45424 | 37001 ft | 474 kts | 109° |
| 2026-04-22 13:41 | 39.23127 | 40.53447 | 37001 ft | 474 kts | 109° |
| 2026-04-22 13:42 | 39.20931 | 40.61479 | 37001 ft | 474 kts | 109° |
| 2026-04-22 13:42 | 39.18728 | 40.69449 | 37001 ft | 474 kts | 110° |
| 2026-04-22 13:43 | 39.16501 | 40.77494 | 37001 ft | 474 kts | 109° |
| 2026-04-22 13:43 | 39.14308 | 40.85500 | 37001 ft | 474 kts | 109° |
| 2026-04-22 13:44 | 39.12119 | 40.93500 | 37001 ft | 474 kts | 109° |
| 2026-04-22 13:44 | 39.09940 | 41.01469 | 37001 ft | 474 kts | 109° |
| 2026-04-22 13:45 | 39.07752 | 41.09468 | 37001 ft | 474 kts | 109° |
| 2026-04-22 13:45 | 39.05558 | 41.17492 | 37001 ft | 474 kts | 109° |
| 2026-04-22 13:46 | 39.03375 | 41.25471 | 37001 ft | 474 kts | 109° |
| 2026-04-22 13:46 | 39.01191 | 41.33459 | 37001 ft | 474 kts | 109° |
| 2026-04-22 13:47 | 38.99010 | 41.41431 | 37001 ft | 474 kts | 109° |
| 2026-04-22 13:47 | 38.96830 | 41.49403 | 37001 ft | 474 kts | 109° |
| 2026-04-22 13:48 | 38.94644 | 41.57396 | 37001 ft | 474 kts | 109° |
| 2026-04-22 13:48 | 38.92455 | 41.65403 | 37001 ft | 474 kts | 110° |
| 2026-04-22 13:49 | 38.90224 | 41.73396 | 37001 ft | 474 kts | 109° |
| 2026-04-22 13:49 | 38.88024 | 41.81365 | 37001 ft | 474 kts | 109° |
| 2026-04-22 13:50 | 38.85836 | 41.89344 | 37001 ft | 474 kts | 109° |
| 2026-04-22 13:50 | 38.83651 | 41.97329 | 37001 ft | 474 kts | 109° |
| 2026-04-22 13:51 | 38.81473 | 42.05292 | 37001 ft | 474 kts | 109° |
| 2026-04-22 13:51 | 38.79289 | 42.13279 | 37001 ft | 474 kts | 109° |
| 2026-04-22 13:52 | 38.77099 | 42.21285 | 37001 ft | 474 kts | 109° |
| 2026-04-22 13:52 | 38.74920 | 42.29253 | 37001 ft | 474 kts | 109° |
| 2026-04-22 13:53 | 38.72740 | 42.37220 | 37001 ft | 474 kts | 109° |
| 2026-04-22 13:53 | 38.70562 | 42.45186 | 37001 ft | 474 kts | 109° |
| 2026-04-22 13:54 | 38.68385 | 42.53145 | 37001 ft | 474 kts | 109° |
| 2026-04-22 13:54 | 38.66203 | 42.61119 | 37000 ft | 474 kts | 109° |
| 2026-04-22 13:55 | 38.64011 | 42.69061 | 37000 ft | 474 kts | 110° |
| 2026-04-22 13:55 | 38.61816 | 42.76993 | 37001 ft | 474 kts | 109° |
| 2026-04-22 13:56 | 38.59627 | 42.84982 | 37001 ft | 474 kts | 109° |
| 2026-04-22 13:56 | 38.57452 | 42.92934 | 37001 ft | 474 kts | 109° |
| 2026-04-22 13:57 | 38.55284 | 43.00858 | 37001 ft | 474 kts | 109° |
| 2026-04-22 13:57 | 38.53095 | 43.08859 | 37001 ft | 474 kts | 109° |
| 2026-04-22 13:58 | 38.50931 | 43.16769 | 37001 ft | 474 kts | 109° |
| 2026-04-22 13:58 | 38.48739 | 43.24777 | 37001 ft | 474 kts | 109° |
| 2026-04-22 13:59 | 38.46534 | 43.32665 | 36999 ft | 474 kts | 113° |
| 2026-04-22 13:59 | 38.43362 | 43.39995 | 37002 ft | 475 kts | 119° |
| 2026-04-22 14:00 | 38.40156 | 43.47333 | 37000 ft | 474 kts | 119° |
| 2026-04-22 14:00 | 38.36931 | 43.54695 | 37001 ft | 474 kts | 119° |
| 2026-04-22 14:01 | 38.33715 | 43.62036 | 37001 ft | 474 kts | 118° |
| 2026-04-22 14:01 | 38.30485 | 43.69347 | 37001 ft | 474 kts | 120° |
| 2026-04-22 14:02 | 38.27261 | 43.76690 | 37001 ft | 474 kts | 119° |
| 2026-04-22 14:02 | 38.24139 | 43.84096 | 37001 ft | 474 kts | 118° |
| 2026-04-22 14:03 | 38.21038 | 43.91488 | 37001 ft | 474 kts | 118° |
| 2026-04-22 14:03 | 38.17945 | 43.98869 | 37001 ft | 474 kts | 118° |
| 2026-04-22 14:04 | 38.14834 | 44.06292 | 37001 ft | 474 kts | 118° |
| 2026-04-22 14:04 | 38.11738 | 44.13676 | 37001 ft | 474 kts | 118° |
| 2026-04-22 14:05 | 38.08637 | 44.21069 | 37001 ft | 474 kts | 118° |
| 2026-04-22 14:06 | 38.04080 | 44.32179 | 37002 ft | 474 kts | 114° |
| 2026-04-22 14:06 | 38.01292 | 44.39792 | 37001 ft | 474 kts | 115° |
| 2026-04-22 14:07 | 37.98496 | 44.47348 | 37001 ft | 474 kts | 115° |
| 2026-04-22 14:07 | 37.95700 | 44.54905 | 37001 ft | 474 kts | 115° |
| 2026-04-22 14:08 | 37.92915 | 44.62427 | 37001 ft | 474 kts | 115° |
| 2026-04-22 14:08 | 37.90086 | 44.69983 | 37001 ft | 474 kts | 116° |
| 2026-04-22 14:09 | 37.87268 | 44.77542 | 37001 ft | 474 kts | 115° |
| 2026-04-22 14:09 | 37.84425 | 44.85081 | 37001 ft | 474 kts | 115° |
| 2026-04-22 14:10 | 37.81587 | 44.92596 | 37001 ft | 474 kts | 115° |
| 2026-04-22 14:10 | 37.78750 | 45.00106 | 37001 ft | 474 kts | 115° |
| 2026-04-22 14:11 | 37.75911 | 45.07619 | 36923 ft | 476 kts | 115° |
| 2026-04-22 14:11 | 37.74481 | 45.11402 | 36750 ft | 474 kts | 115° |
| 2026-04-22 14:11 | 37.73065 | 45.15150 | 36793 ft | 472 kts | 115° |
| 2026-04-22 14:12 | 37.70231 | 45.22651 | 36777 ft | 475 kts | 115° |
| 2026-04-22 14:12 | 37.67381 | 45.30194 | 36782 ft | 474 kts | 115° |
| 2026-04-22 14:13 | 37.64565 | 45.37647 | 36781 ft | 474 kts | 115° |
| 2026-04-22 14:13 | 37.61706 | 45.45209 | 36781 ft | 474 kts | 115° |
| 2026-04-22 14:14 | 37.58878 | 45.52692 | 36896 ft | 472 kts | 115° |
| 2026-04-22 14:14 | 37.57474 | 45.56405 | 37032 ft | 476 kts | 115° |
| 2026-04-22 14:14 | 37.56052 | 45.60163 | 36994 ft | 476 kts | 115° |
| 2026-04-22 14:15 | 37.53030 | 45.67568 | 37003 ft | 474 kts | 127° |
| 2026-04-22 14:15 | 37.50715 | 45.70494 | 37015 ft | 474 kts | 144° |
| 2026-04-22 14:15 | 37.47954 | 45.72720 | 36998 ft | 475 kts | 149° |
| 2026-04-22 14:16 | 37.42336 | 45.77049 | 37001 ft | 474 kts | 149° |
| 2026-04-22 14:16 | 37.36666 | 45.81364 | 37001 ft | 474 kts | 149° |
| 2026-04-22 14:17 | 37.31014 | 45.85660 | 37001 ft | 474 kts | 149° |
| 2026-04-22 14:17 | 37.25426 | 45.90008 | 37001 ft | 474 kts | 146° |
| 2026-04-22 14:18 | 37.19954 | 45.94609 | 37001 ft | 474 kts | 146° |
| 2026-04-22 14:18 | 37.14479 | 45.99181 | 37001 ft | 474 kts | 146° |
| 2026-04-22 14:19 | 37.08980 | 46.03772 | 37001 ft | 474 kts | 146° |
| 2026-04-22 14:19 | 37.03482 | 46.08363 | 37001 ft | 474 kts | 146° |
| 2026-04-22 14:20 | 36.95300 | 46.15195 | 37001 ft | 474 kts | 146° |
| 2026-04-22 14:20 | 36.89803 | 46.19785 | 37001 ft | 474 kts | 146° |
| 2026-04-22 14:21 | 36.81595 | 46.26625 | 37001 ft | 474 kts | 146° |
| 2026-04-22 14:22 | 36.73383 | 46.33480 | 37001 ft | 474 kts | 146° |
| 2026-04-22 14:23 | 36.65137 | 46.40364 | 37001 ft | 474 kts | 146° |
| 2026-04-22 14:23 | 36.59671 | 46.44926 | 37001 ft | 474 kts | 146° |
| 2026-04-22 14:24 | 36.54174 | 46.49511 | 37001 ft | 474 kts | 146° |
| 2026-04-22 14:24 | 36.48730 | 46.54037 | 37001 ft | 474 kts | 146° |
| 2026-04-22 14:25 | 36.43226 | 46.58564 | 37000 ft | 474 kts | 146° |
| 2026-04-22 14:25 | 36.37732 | 46.63069 | 37001 ft | 474 kts | 146° |
| 2026-04-22 14:26 | 36.32233 | 46.67548 | 37001 ft | 474 kts | 147° |
| 2026-04-22 14:26 | 36.26732 | 46.72034 | 37001 ft | 474 kts | 147° |
| 2026-04-22 14:27 | 36.21220 | 46.76549 | 37001 ft | 474 kts | 147° |
| 2026-04-22 14:27 | 36.15744 | 46.81038 | 37001 ft | 474 kts | 147° |
| 2026-04-22 14:28 | 36.10244 | 46.85548 | 37001 ft | 474 kts | 146° |
| 2026-04-22 14:28 | 36.04714 | 46.90025 | 37001 ft | 474 kts | 147° |
| 2026-04-22 14:29 | 35.99167 | 46.94462 | 37001 ft | 474 kts | 147° |
| 2026-04-22 14:29 | 35.93658 | 46.98862 | 37001 ft | 474 kts | 147° |
| 2026-04-22 14:30 | 35.88129 | 47.03274 | 37000 ft | 474 kts | 147° |
| 2026-04-22 14:30 | 35.82568 | 47.07703 | 37001 ft | 474 kts | 147° |
| 2026-04-22 14:31 | 35.77033 | 47.12119 | 37001 ft | 474 kts | 147° |
| 2026-04-22 14:31 | 35.71511 | 47.16527 | 37001 ft | 474 kts | 147° |
| 2026-04-22 14:32 | 35.65987 | 47.20937 | 37001 ft | 474 kts | 147° |
| 2026-04-22 14:32 | 35.60467 | 47.25344 | 37001 ft | 474 kts | 147° |
| 2026-04-22 14:33 | 35.54974 | 47.29729 | 37001 ft | 474 kts | 147° |
| 2026-04-22 14:33 | 35.49424 | 47.34158 | 37001 ft | 474 kts | 147° |
| 2026-04-22 14:34 | 35.43894 | 47.38573 | 37001 ft | 475 kts | 147° |
| 2026-04-22 14:34 | 35.38393 | 47.42964 | 37001 ft | 475 kts | 147° |
| 2026-04-22 14:35 | 35.32881 | 47.47364 | 37001 ft | 475 kts | 147° |
| 2026-04-22 14:35 | 35.27335 | 47.51790 | 37001 ft | 475 kts | 147° |
| 2026-04-22 14:36 | 35.21802 | 47.56205 | 37001 ft | 475 kts | 146° |
| 2026-04-22 14:36 | 35.16291 | 47.60601 | 37001 ft | 475 kts | 146° |
| 2026-04-22 14:37 | 35.10795 | 47.64980 | 37001 ft | 475 kts | 146° |
| 2026-04-22 14:37 | 35.05230 | 47.69374 | 37001 ft | 475 kts | 147° |
| 2026-04-22 14:38 | 34.99651 | 47.73721 | 37001 ft | 475 kts | 148° |
| 2026-04-22 14:38 | 34.94100 | 47.78026 | 37001 ft | 475 kts | 148° |
| 2026-04-22 14:39 | 34.88530 | 47.82342 | 37001 ft | 475 kts | 148° |
| 2026-04-22 14:39 | 34.82984 | 47.86628 | 37001 ft | 475 kts | 147° |
| 2026-04-22 14:40 | 34.74638 | 47.93092 | 37001 ft | 475 kts | 147° |
| 2026-04-22 14:40 | 34.69112 | 47.97374 | 37001 ft | 475 kts | 147° |
| 2026-04-22 14:41 | 34.63556 | 48.01679 | 37001 ft | 475 kts | 147° |
| 2026-04-22 14:41 | 34.57999 | 48.05985 | 37001 ft | 475 kts | 147° |
| 2026-04-22 14:42 | 34.52457 | 48.10279 | 37001 ft | 475 kts | 147° |
| 2026-04-22 14:42 | 34.46885 | 48.14597 | 37001 ft | 475 kts | 147° |
| 2026-04-22 14:43 | 34.41348 | 48.18887 | 37001 ft | 475 kts | 147° |
| 2026-04-22 14:43 | 34.35809 | 48.23178 | 37001 ft | 475 kts | 147° |
| 2026-04-22 14:44 | 34.30258 | 48.27480 | 37001 ft | 475 kts | 147° |
| 2026-04-22 14:44 | 34.24705 | 48.31782 | 37001 ft | 475 kts | 147° |
| 2026-04-22 14:45 | 34.19120 | 48.36109 | 37001 ft | 475 kts | 147° |
| 2026-04-22 14:45 | 34.13578 | 48.40403 | 37001 ft | 475 kts | 147° |
| 2026-04-22 14:46 | 34.08046 | 48.44689 | 37001 ft | 475 kts | 147° |
| 2026-04-22 14:46 | 34.02511 | 48.48978 | 37001 ft | 475 kts | 147° |
| 2026-04-22 14:47 | 33.96949 | 48.53287 | 37001 ft | 475 kts | 147° |
| 2026-04-22 14:47 | 33.91396 | 48.57590 | 37001 ft | 475 kts | 147° |
| 2026-04-22 14:48 | 33.85833 | 48.61891 | 37001 ft | 475 kts | 147° |
| 2026-04-22 14:48 | 33.80272 | 48.66188 | 37001 ft | 475 kts | 148° |
| 2026-04-22 14:49 | 33.74725 | 48.70449 | 37001 ft | 475 kts | 147° |
| 2026-04-22 14:49 | 33.69197 | 48.74727 | 37001 ft | 475 kts | 147° |
| 2026-04-22 14:50 | 33.63651 | 48.79024 | 37001 ft | 475 kts | 147° |
| 2026-04-22 14:50 | 33.58099 | 48.83326 | 37001 ft | 475 kts | 147° |
| 2026-04-22 14:51 | 33.52582 | 48.87600 | 37001 ft | 475 kts | 147° |
| 2026-04-22 14:51 | 33.47021 | 48.91909 | 37001 ft | 475 kts | 147° |
| 2026-04-22 14:52 | 33.41522 | 48.96170 | 37001 ft | 475 kts | 147° |
| 2026-04-22 14:52 | 33.35958 | 49.00481 | 37001 ft | 475 kts | 147° |
| 2026-04-22 14:53 | 33.30426 | 49.04768 | 37001 ft | 475 kts | 146° |
| 2026-04-22 14:53 | 33.25019 | 49.09312 | 37001 ft | 475 kts | 145° |
| 2026-04-22 14:54 | 33.19617 | 49.13791 | 37001 ft | 475 kts | 145° |
| 2026-04-22 14:54 | 33.14203 | 49.18269 | 37001 ft | 475 kts | 145° |
| 2026-04-22 14:55 | 33.08786 | 49.22746 | 37001 ft | 475 kts | 145° |
| 2026-04-22 14:55 | 33.03386 | 49.27209 | 37001 ft | 475 kts | 145° |
| 2026-04-22 14:56 | 32.97965 | 49.31689 | 37001 ft | 475 kts | 145° |
| 2026-04-22 14:56 | 32.92547 | 49.36166 | 37001 ft | 475 kts | 145° |
| 2026-04-22 14:57 | 32.87115 | 49.40649 | 37001 ft | 475 kts | 145° |
| 2026-04-22 14:57 | 32.81734 | 49.45085 | 37001 ft | 475 kts | 145° |
| 2026-04-22 14:58 | 32.76304 | 49.49572 | 37001 ft | 475 kts | 145° |
| 2026-04-22 14:58 | 32.70897 | 49.54039 | 37001 ft | 475 kts | 145° |
| 2026-04-22 14:59 | 32.65513 | 49.58488 | 37001 ft | 475 kts | 144° |
| 2026-04-22 14:59 | 32.60082 | 49.62976 | 37001 ft | 475 kts | 144° |
| 2026-04-22 15:00 | 32.54671 | 49.67426 | 37001 ft | 475 kts | 146° |
| 2026-04-22 15:00 | 32.49247 | 49.71886 | 37001 ft | 475 kts | 145° |
| 2026-04-22 15:01 | 32.43822 | 49.76366 | 37001 ft | 475 kts | 145° |
| 2026-04-22 15:01 | 32.38419 | 49.80830 | 37001 ft | 475 kts | 145° |
| 2026-04-22 15:02 | 32.33041 | 49.85274 | 37001 ft | 475 kts | 145° |
| 2026-04-22 15:02 | 32.27629 | 49.89747 | 37001 ft | 475 kts | 145° |
| 2026-04-22 15:03 | 32.22237 | 49.94202 | 37001 ft | 475 kts | 145° |
| 2026-04-22 15:03 | 32.16827 | 49.98674 | 37001 ft | 475 kts | 145° |
| 2026-04-22 15:04 | 32.11541 | 50.03042 | 37001 ft | 475 kts | 145° |
| 2026-04-22 15:04 | 32.06136 | 50.07509 | 37001 ft | 475 kts | 145° |
| 2026-04-22 15:05 | 32.00724 | 50.11980 | 37001 ft | 475 kts | 145° |
| 2026-04-22 15:05 | 31.95330 | 50.16439 | 37001 ft | 475 kts | 145° |
| 2026-04-22 15:06 | 31.89937 | 50.20895 | 37001 ft | 475 kts | 144° |
| 2026-04-22 15:06 | 31.84517 | 50.25361 | 37001 ft | 475 kts | 144° |
| 2026-04-22 15:07 | 31.79155 | 50.29790 | 37001 ft | 475 kts | 144° |
| 2026-04-22 15:07 | 31.73741 | 50.34263 | 37001 ft | 475 kts | 144° |
| 2026-04-22 15:08 | 31.68341 | 50.38725 | 37001 ft | 475 kts | 144° |
| 2026-04-22 15:08 | 31.62935 | 50.43192 | 37001 ft | 475 kts | 144° |
| 2026-04-22 15:09 | 31.57540 | 50.47651 | 37001 ft | 475 kts | 144° |
| 2026-04-22 15:09 | 31.52163 | 50.52094 | 37001 ft | 475 kts | 144° |
| 2026-04-22 15:10 | 31.46793 | 50.56532 | 37001 ft | 475 kts | 144° |
| 2026-04-22 15:10 | 31.41408 | 50.60982 | 37001 ft | 475 kts | 144° |
| 2026-04-22 15:11 | 31.36024 | 50.65430 | 37001 ft | 475 kts | 145° |
| 2026-04-22 15:11 | 31.30654 | 50.69830 | 37001 ft | 475 kts | 145° |
| 2026-04-22 15:12 | 31.25273 | 50.74271 | 37001 ft | 475 kts | 145° |
| 2026-04-22 15:12 | 31.19887 | 50.78721 | 37001 ft | 475 kts | 145° |
| 2026-04-22 15:13 | 31.14506 | 50.83168 | 37001 ft | 475 kts | 144° |
| 2026-04-22 15:13 | 31.09090 | 50.87643 | 37001 ft | 475 kts | 144° |
| 2026-04-22 15:14 | 31.03725 | 50.92076 | 37001 ft | 475 kts | 144° |
| 2026-04-22 15:14 | 30.98331 | 50.96533 | 37001 ft | 475 kts | 144° |
| 2026-04-22 15:15 | 30.92949 | 51.00981 | 37001 ft | 475 kts | 144° |
| 2026-04-22 15:15 | 30.87571 | 51.05421 | 37001 ft | 475 kts | 144° |
| 2026-04-22 15:16 | 30.82150 | 51.09891 | 37001 ft | 475 kts | 144° |
| 2026-04-22 15:16 | 30.76789 | 51.14321 | 37001 ft | 475 kts | 144° |
| 2026-04-22 15:17 | 30.71406 | 51.18769 | 37001 ft | 475 kts | 144° |
| 2026-04-22 15:17 | 30.66034 | 51.23208 | 37001 ft | 475 kts | 144° |
| 2026-04-22 15:18 | 30.60693 | 51.27622 | 37001 ft | 475 kts | 144° |
| 2026-04-22 15:18 | 30.55280 | 51.32093 | 37001 ft | 475 kts | 144° |
| 2026-04-22 15:19 | 30.49921 | 51.36521 | 37001 ft | 475 kts | 144° |
| 2026-04-22 15:19 | 30.44556 | 51.40951 | 37001 ft | 475 kts | 144° |
| 2026-04-22 15:20 | 30.38881 | 51.44800 | 37011 ft | 474 kts | 159° |
| 2026-04-22 15:20 | 30.32728 | 51.47467 | 36999 ft | 475 kts | 158° |
| 2026-04-22 15:21 | 30.26568 | 51.50198 | 37001 ft | 475 kts | 159° |
| 2026-04-22 15:21 | 30.20394 | 51.52937 | 37001 ft | 475 kts | 159° |
| 2026-04-22 15:22 | 30.14256 | 51.55624 | 37001 ft | 475 kts | 159° |
| 2026-04-22 15:22 | 30.08084 | 51.58318 | 37001 ft | 475 kts | 159° |
| 2026-04-22 15:23 | 30.01899 | 51.61015 | 37001 ft | 475 kts | 159° |
| 2026-04-22 15:23 | 29.95737 | 51.63702 | 37001 ft | 475 kts | 159° |
| 2026-04-22 15:24 | 29.89586 | 51.66369 | 37001 ft | 475 kts | 160° |
| 2026-04-22 15:24 | 29.83417 | 51.69036 | 37001 ft | 475 kts | 159° |
| 2026-04-22 15:25 | 29.77247 | 51.71723 | 37001 ft | 475 kts | 159° |
| 2026-04-22 15:25 | 29.71093 | 51.74406 | 37001 ft | 475 kts | 159° |
| 2026-04-22 15:26 | 29.64915 | 51.77100 | 37001 ft | 475 kts | 159° |
| 2026-04-22 15:26 | 29.58751 | 51.79788 | 37001 ft | 475 kts | 159° |
| 2026-04-22 15:27 | 29.52580 | 51.82479 | 37000 ft | 475 kts | 159° |
| 2026-04-22 15:27 | 29.46417 | 51.85166 | 37000 ft | 475 kts | 159° |
| 2026-04-22 15:28 | 29.40281 | 51.87842 | 37001 ft | 475 kts | 159° |
| 2026-04-22 15:28 | 29.34105 | 51.90535 | 37001 ft | 475 kts | 159° |
| 2026-04-22 15:29 | 29.27913 | 51.93235 | 37001 ft | 475 kts | 159° |
| 2026-04-22 15:30 | 29.18674 | 51.97264 | 37001 ft | 475 kts | 159° |
| 2026-04-22 15:30 | 29.12512 | 51.99952 | 37001 ft | 475 kts | 159° |
| 2026-04-22 15:31 | 29.06395 | 52.02619 | 37001 ft | 475 kts | 159° |
| 2026-04-22 15:31 | 29.00219 | 52.05311 | 37001 ft | 475 kts | 159° |
| 2026-04-22 15:32 | 28.94078 | 52.07988 | 37001 ft | 475 kts | 159° |
| 2026-04-22 15:32 | 28.88074 | 52.11093 | 37011 ft | 474 kts | 147° |
| 2026-04-22 15:33 | 28.82535 | 52.15168 | 36999 ft | 475 kts | 148° |
| 2026-04-22 15:33 | 28.76965 | 52.19180 | 37001 ft | 475 kts | 147° |
| 2026-04-22 15:34 | 28.71375 | 52.23210 | 37000 ft | 475 kts | 147° |
| 2026-04-22 15:34 | 28.65832 | 52.27207 | 37001 ft | 475 kts | 147° |
| 2026-04-22 15:35 | 28.61164 | 52.30572 | 37001 ft | 475 kts | 147° |
| 2026-04-22 15:35 | 28.54686 | 52.35239 | 37001 ft | 475 kts | 147° |
| 2026-04-22 15:36 | 28.49097 | 52.39233 | 37001 ft | 475 kts | 148° |
| 2026-04-22 15:36 | 28.43514 | 52.43193 | 37001 ft | 475 kts | 148° |
| 2026-04-22 15:37 | 28.37909 | 52.47165 | 37001 ft | 475 kts | 148° |
| 2026-04-22 15:37 | 28.32281 | 52.51153 | 37001 ft | 475 kts | 148° |
| 2026-04-22 15:38 | 28.26709 | 52.55100 | 37001 ft | 475 kts | 148° |
| 2026-04-22 15:38 | 28.18299 | 52.61057 | 37001 ft | 475 kts | 148° |
| 2026-04-22 15:39 | 28.12701 | 52.65023 | 37001 ft | 475 kts | 148° |
| 2026-04-22 15:39 | 28.07082 | 52.68974 | 37001 ft | 475 kts | 148° |
| 2026-04-22 15:40 | 28.01497 | 52.72926 | 37001 ft | 475 kts | 148° |
| 2026-04-22 15:40 | 27.95914 | 52.76879 | 37001 ft | 475 kts | 148° |
| 2026-04-22 15:41 | 27.90315 | 52.80846 | 37001 ft | 475 kts | 148° |
| 2026-04-22 15:41 | 27.84719 | 52.84801 | 37001 ft | 475 kts | 148° |
| 2026-04-22 15:42 | 27.79124 | 52.88762 | 37001 ft | 475 kts | 148° |
| 2026-04-22 15:42 | 27.73533 | 52.92723 | 37001 ft | 475 kts | 148° |
| 2026-04-22 15:43 | 27.67926 | 52.96695 | 37001 ft | 475 kts | 148° |
| 2026-04-22 15:43 | 27.62334 | 53.00657 | 37001 ft | 475 kts | 148° |
| 2026-04-22 15:44 | 27.56771 | 53.04597 | 37001 ft | 475 kts | 148° |
| 2026-04-22 15:44 | 27.51211 | 53.08537 | 37001 ft | 475 kts | 148° |
| 2026-04-22 15:45 | 27.45612 | 53.12502 | 37001 ft | 475 kts | 148° |
| 2026-04-22 15:45 | 27.40025 | 53.16459 | 37001 ft | 475 kts | 148° |
| 2026-04-22 15:46 | 27.34659 | 53.20781 | 37003 ft | 475 kts | 139° |
| 2026-04-22 15:46 | 27.29556 | 53.25533 | 37000 ft | 475 kts | 141° |
| 2026-04-22 15:47 | 27.24440 | 53.30236 | 37001 ft | 475 kts | 141° |
| 2026-04-22 15:47 | 27.19346 | 53.34914 | 37001 ft | 475 kts | 140° |
| 2026-04-22 15:48 | 27.14245 | 53.39600 | 37001 ft | 475 kts | 140° |
| 2026-04-22 15:48 | 27.09136 | 53.44292 | 37001 ft | 475 kts | 140° |
| 2026-04-22 15:49 | 27.04053 | 53.48960 | 37001 ft | 475 kts | 140° |
| 2026-04-22 15:49 | 26.98936 | 53.53659 | 37001 ft | 475 kts | 140° |
| 2026-04-22 15:50 | 26.93807 | 53.58369 | 37001 ft | 475 kts | 140° |
| 2026-04-22 15:50 | 26.88703 | 53.63056 | 37001 ft | 475 kts | 140° |
| 2026-04-22 15:51 | 26.83567 | 53.67740 | 37001 ft | 475 kts | 141° |
| 2026-04-22 15:51 | 26.78482 | 53.72395 | 37001 ft | 475 kts | 141° |
| 2026-04-22 15:52 | 26.73393 | 53.77066 | 37001 ft | 475 kts | 141° |
| 2026-04-22 15:52 | 26.68293 | 53.81749 | 37001 ft | 475 kts | 141° |
| 2026-04-22 15:53 | 26.63211 | 53.86418 | 37001 ft | 475 kts | 141° |
| 2026-04-22 15:53 | 26.58129 | 53.91085 | 37001 ft | 475 kts | 141° |
| 2026-04-22 15:54 | 26.53044 | 53.95759 | 37001 ft | 475 kts | 140° |
| 2026-04-22 15:54 | 26.48007 | 54.00493 | 37001 ft | 475 kts | 140° |
| 2026-04-22 15:55 | 26.42938 | 54.05249 | 37001 ft | 475 kts | 140° |
| 2026-04-22 15:55 | 26.37920 | 54.09955 | 37001 ft | 475 kts | 140° |
| 2026-04-22 15:56 | 26.32858 | 54.14704 | 37001 ft | 475 kts | 140° |
| 2026-04-22 15:56 | 26.27842 | 54.19408 | 37001 ft | 475 kts | 140° |
| 2026-04-22 15:57 | 26.22791 | 54.24146 | 37001 ft | 475 kts | 140° |
| 2026-04-22 15:57 | 26.17748 | 54.28875 | 37001 ft | 475 kts | 140° |
| 2026-04-22 15:58 | 26.12713 | 54.33598 | 37001 ft | 475 kts | 140° |
| 2026-04-22 15:58 | 26.07677 | 54.38320 | 37001 ft | 475 kts | 140° |
| 2026-04-22 15:59 | 26.02637 | 54.43047 | 37001 ft | 475 kts | 140° |
| 2026-04-22 15:59 | 25.97627 | 54.47743 | 37001 ft | 475 kts | 140° |
| 2026-04-22 16:00 | 25.92583 | 54.52466 | 37001 ft | 475 kts | 140° |
| 2026-04-22 16:00 | 25.87898 | 54.57623 | 36998 ft | 475 kts | 133° |
| 2026-04-22 16:01 | 25.83293 | 54.62894 | 37001 ft | 475 kts | 134° |
| 2026-04-22 16:01 | 25.78669 | 54.68082 | 37001 ft | 475 kts | 137° |
| 2026-04-22 16:02 | 25.73877 | 54.73099 | 37001 ft | 475 kts | 136° |
| 2026-04-22 16:02 | 25.71462 | 54.75637 | 36836 ft | 476 kts | 136° |
| 2026-04-22 16:02 | 25.69062 | 54.78156 | 36873 ft | 470 kts | 136° |
| 2026-04-22 16:03 | 25.66704 | 54.80632 | 37040 ft | 474 kts | 136° |
| 2026-04-22 16:03 | 25.64282 | 54.83174 | 36990 ft | 476 kts | 136° |
| 2026-04-22 16:03 | 25.60187 | 54.88828 | 37026 ft | 475 kts | 116° |
| 2026-04-22 16:04 | 25.57305 | 54.95424 | 36998 ft | 475 kts | 116° |
| 2026-04-22 16:04 | 25.54410 | 55.02017 | 37002 ft | 475 kts | 116° |
| 2026-04-22 16:05 | 25.51551 | 55.08555 | 37000 ft | 475 kts | 116° |
| 2026-04-22 16:05 | 25.48676 | 55.15131 | 37001 ft | 475 kts | 116° |
| 2026-04-22 16:06 | 25.45782 | 55.21688 | 36999 ft | 475 kts | 119° |
| 2026-04-22 16:06 | 25.43807 | 55.24619 | 37016 ft | 474 kts | 136° |
| 2026-04-22 16:06 | 25.41258 | 55.26864 | 37003 ft | 476 kts | 145° |
| 2026-04-22 16:07 | 25.35813 | 55.31022 | 37000 ft | 475 kts | 145° |
| 2026-04-22 16:07 | 25.30345 | 55.35126 | 37001 ft | 475 kts | 146° |
| 2026-04-22 16:08 | 25.24894 | 55.39202 | 37001 ft | 475 kts | 146° |
| 2026-04-22 16:08 | 25.19701 | 55.43652 | 37013 ft | 474 kts | 132° |
| 2026-04-22 16:09 | 25.15331 | 55.49057 | 36999 ft | 475 kts | 133° |
| 2026-04-22 16:09 | 25.10878 | 55.54436 | 36987 ft | 475 kts | 132° |
| 2026-04-22 16:10 | 25.08631 | 55.57158 | 36781 ft | 476 kts | 132° |
| 2026-04-22 16:10 | 25.06421 | 55.59833 | 36537 ft | 475 kts | 132° |
| 2026-04-22 16:10 | 25.04943 | 55.61615 | 36376 ft | 474 kts | 132° |
| 2026-04-22 16:10 | 25.01981 | 55.65183 | 36057 ft | 473 kts | 133° |
| 2026-04-22 16:11 | 24.99766 | 55.67833 | 35822 ft | 474 kts | 133° |
| 2026-04-22 16:11 | 24.97522 | 55.70519 | 35584 ft | 475 kts | 133° |
| 2026-04-22 16:11 | 24.95293 | 55.73201 | 35345 ft | 475 kts | 133° |
| 2026-04-22 16:11 | 24.93062 | 55.75885 | 35106 ft | 476 kts | 133° |
| 2026-04-22 16:12 | 24.90852 | 55.78547 | 34869 ft | 476 kts | 133° |
| 2026-04-22 16:12 | 24.88607 | 55.81246 | 34629 ft | 477 kts | 133° |
| 2026-04-22 16:12 | 24.86353 | 55.83949 | 34388 ft | 477 kts | 133° |
| 2026-04-22 16:12 | 24.84120 | 55.86636 | 34149 ft | 478 kts | 132° |
| 2026-04-22 16:13 | 24.81887 | 55.89325 | 33910 ft | 478 kts | 132° |
| 2026-04-22 16:13 | 24.79663 | 55.92005 | 33672 ft | 479 kts | 132° |
| 2026-04-22 16:13 | 24.77354 | 55.94664 | 33556 ft | 478 kts | 136° |
| 2026-04-22 16:13 | 24.74919 | 55.97149 | 33349 ft | 482 kts | 137° |
| 2026-04-22 16:14 | 24.72465 | 55.99666 | 33107 ft | 481 kts | 136° |
| 2026-04-22 16:14 | 24.70047 | 56.02168 | 32976 ft | 478 kts | 137° |
| 2026-04-22 16:14 | 24.65188 | 56.07168 | 33006 ft | 482 kts | 137° |
| 2026-04-22 16:15 | 24.60301 | 56.12199 | 33005 ft | 482 kts | 137° |
| 2026-04-22 16:15 | 24.55551 | 56.17415 | 33008 ft | 481 kts | 130° |
| 2026-04-22 16:16 | 24.51203 | 56.23017 | 33005 ft | 482 kts | 131° |
| 2026-04-22 16:16 | 24.46813 | 56.28596 | 32821 ft | 483 kts | 130° |
| 2026-04-22 16:17 | 24.44634 | 56.31367 | 32578 ft | 482 kts | 130° |
| 2026-04-22 16:17 | 24.42447 | 56.34146 | 32336 ft | 481 kts | 130° |
| 2026-04-22 16:17 | 24.40245 | 56.36945 | 32096 ft | 482 kts | 130° |
| 2026-04-22 16:17 | 24.38070 | 56.39710 | 32054 ft | 481 kts | 130° |
| 2026-04-22 16:18 | 24.35853 | 56.42527 | 31675 ft | 487 kts | 130° |
| 2026-04-22 16:18 | 24.33642 | 56.45336 | 30973 ft | 487 kts | 130° |
| 2026-04-22 16:18 | 24.31445 | 56.48125 | 30255 ft | 488 kts | 130° |
| 2026-04-22 16:18 | 24.29282 | 56.50995 | 29551 ft | 489 kts | 126° |
| 2026-04-22 16:19 | 24.27302 | 56.54016 | 28971 ft | 487 kts | 125° |
| 2026-04-22 16:19 | 24.25324 | 56.57008 | 28382 ft | 482 kts | 126° |
| 2026-04-22 16:19 | 24.23364 | 56.59946 | 27793 ft | 478 kts | 126° |
| 2026-04-22 16:19 | 24.21405 | 56.62895 | 27202 ft | 474 kts | 126° |
| 2026-04-22 16:20 | 24.19468 | 56.65805 | 26621 ft | 470 kts | 126° |
| 2026-04-22 16:20 | 24.17554 | 56.68658 | 26062 ft | 466 kts | 126° |
| 2026-04-22 16:20 | 24.15650 | 56.71507 | 25496 ft | 462 kts | 126° |
| 2026-04-22 16:20 | 24.13784 | 56.74309 | 24937 ft | 458 kts | 126° |
| 2026-04-22 16:21 | 24.11909 | 56.77128 | 24373 ft | 454 kts | 126° |
| 2026-04-22 16:21 | 24.10064 | 56.79902 | 23815 ft | 450 kts | 126° |
| 2026-04-22 16:21 | 24.08237 | 56.82648 | 23264 ft | 447 kts | 126° |
| 2026-04-22 16:21 | 24.06399 | 56.85410 | 22711 ft | 443 kts | 126° |
| 2026-04-22 16:22 | 24.02807 | 56.90801 | 21626 ft | 436 kts | 126° |
| 2026-04-22 16:22 | 24.01015 | 56.93481 | 21078 ft | 433 kts | 126° |
| 2026-04-22 16:22 | 23.99264 | 56.96095 | 20542 ft | 429 kts | 126° |
| 2026-04-22 16:23 | 23.95758 | 57.01330 | 19468 ft | 422 kts | 126° |
| 2026-04-22 16:23 | 23.94009 | 57.03938 | 18932 ft | 419 kts | 126° |
| 2026-04-22 16:23 | 23.92304 | 57.06483 | 18409 ft | 416 kts | 126° |
| 2026-04-22 16:24 | 23.90600 | 57.09023 | 17887 ft | 413 kts | 126° |
| 2026-04-22 16:24 | 23.87233 | 57.14029 | 16871 ft | 407 kts | 126° |
| 2026-04-22 16:24 | 23.85543 | 57.16540 | 16355 ft | 403 kts | 126° |
| 2026-04-22 16:25 | 23.83883 | 57.19006 | 15848 ft | 400 kts | 126° |
| 2026-04-22 16:25 | 23.80617 | 57.23860 | 14850 ft | 395 kts | 126° |
| 2026-04-22 16:25 | 23.78990 | 57.26279 | 14353 ft | 392 kts | 126° |
| 2026-04-22 16:26 | 23.77384 | 57.28667 | 13862 ft | 389 kts | 126° |
| 2026-04-22 16:26 | 23.75798 | 57.31023 | 13378 ft | 386 kts | 126° |
| 2026-04-22 16:26 | 23.74224 | 57.33362 | 12897 ft | 384 kts | 126° |
| 2026-04-22 16:26 | 23.72666 | 57.35712 | 12517 ft | 379 kts | 122° |
| 2026-04-22 16:27 | 23.71523 | 57.38284 | 12360 ft | 381 kts | 110° |
| 2026-04-22 16:27 | 23.70641 | 57.41028 | 12097 ft | 379 kts | 110° |
| 2026-04-22 16:27 | 23.69727 | 57.43706 | 11832 ft | 378 kts | 110° |
| 2026-04-22 16:27 | 23.68804 | 57.46404 | 11576 ft | 376 kts | 110° |
| 2026-04-22 16:28 | 23.67902 | 57.49052 | 11330 ft | 375 kts | 110° |
| 2026-04-22 16:28 | 23.66996 | 57.51711 | 11086 ft | 369 kts | 110° |
| 2026-04-22 16:28 | 23.66114 | 57.54303 | 10839 ft | 358 kts | 110° |
| 2026-04-22 16:28 | 23.65271 | 57.56775 | 10596 ft | 338 kts | 110° |
| 2026-04-22 16:29 | 23.64481 | 57.59095 | 10382 ft | 318 kts | 110° |
| 2026-04-22 16:29 | 23.63734 | 57.61287 | 10196 ft | 300 kts | 110° |
| 2026-04-22 16:29 | 23.63018 | 57.63385 | 9932 ft | 291 kts | 110° |
| 2026-04-22 16:29 | 23.62312 | 57.65455 | 9587 ft | 288 kts | 110° |
| 2026-04-22 16:30 | 23.61846 | 57.66809 | 9375 ft | 287 kts | 111° |
| 2026-04-22 16:30 | 23.60917 | 57.69507 | 8958 ft | 285 kts | 110° |
| 2026-04-22 16:30 | 23.60225 | 57.71529 | 8645 ft | 283 kts | 110° |
| 2026-04-22 16:30 | 23.59547 | 57.73517 | 8337 ft | 282 kts | 110° |
| 2026-04-22 16:31 | 23.58872 | 57.75499 | 8170 ft | 268 kts | 110° |
| 2026-04-22 16:31 | 23.58227 | 57.77395 | 8197 ft | 266 kts | 110° |
| 2026-04-22 16:31 | 23.57619 | 57.79293 | 7875 ft | 274 kts | 103° |
| 2026-04-22 16:31 | 23.57519 | 57.81358 | 7234 ft | 264 kts | 86° |
| 2026-04-22 16:32 | 23.57590 | 57.83255 | 6913 ft | 248 kts | 89° |
| 2026-04-22 16:32 | 23.57604 | 57.85125 | 6640 ft | 244 kts | 89° |
| 2026-04-22 16:32 | 23.57626 | 57.86969 | 6364 ft | 242 kts | 89° |
| 2026-04-22 16:32 | 23.57650 | 57.88810 | 6103 ft | 241 kts | 89° |
| 2026-04-22 16:33 | 23.57714 | 57.90638 | 5989 ft | 248 kts | 87° |
| 2026-04-22 16:33 | 23.57861 | 57.92578 | 6018 ft | 257 kts | 84° |
| 2026-04-22 16:33 | 23.58043 | 57.94519 | 5805 ft | 257 kts | 84° |
| 2026-04-22 16:33 | 23.58198 | 57.96443 | 5476 ft | 255 kts | 85° |
| 2026-04-22 16:34 | 23.58352 | 57.98366 | 5124 ft | 254 kts | 85° |
| 2026-04-22 16:34 | 23.58510 | 58.00267 | 4778 ft | 251 kts | 85° |
| 2026-04-22 16:34 | 23.58667 | 58.02175 | 4404 ft | 252 kts | 85° |
| 2026-04-22 16:34 | 23.58823 | 58.04066 | 4046 ft | 247 kts | 85° |
| 2026-04-22 16:35 | 23.58973 | 58.05895 | 3698 ft | 240 kts | 85° |
| 2026-04-22 16:35 | 23.59120 | 58.07692 | 3361 ft | 233 kts | 85° |
| 2026-04-22 16:35 | 23.59261 | 58.09417 | 3040 ft | 226 kts | 85° |
| 2026-04-22 16:35 | 23.59398 | 58.11086 | 2754 ft | 216 kts | 85° |
| 2026-04-22 16:36 | 23.59527 | 58.12675 | 2437 ft | 201 kts | 85° |
| 2026-04-22 16:36 | 23.59644 | 58.14113 | 2185 ft | 179 kts | 85° |
| 2026-04-22 16:36 | 23.59749 | 58.15408 | 1950 ft | 162 kts | 85° |
| 2026-04-22 16:36 | 23.59844 | 58.16573 | 1716 ft | 148 kts | 85° |
| 2026-04-22 16:37 | 23.59933 | 58.17670 | 1522 ft | 145 kts | 85° |
| 2026-04-22 16:37 | 23.60021 | 58.18761 | 1332 ft | 144 kts | 85° |
| 2026-04-22 16:37 | 23.60109 | 58.19843 | 1140 ft | 143 kts | 85° |
| 2026-04-22 16:37 | 23.60197 | 58.20924 | 947 ft | 143 kts | 85° |
| 2026-04-22 16:38 | 23.60283 | 58.22007 | 753 ft | 143 kts | 85° |
| 2026-04-22 16:38 | 23.60372 | 58.23087 | 561 ft | 142 kts | 85° |
| 2026-04-22 16:38 | 23.60458 | 58.24164 | 370 ft | 142 kts | 85° |
| 2026-04-22 16:38 | 23.60544 | 58.25229 | 183 ft | 141 kts | 85° |
| 2026-04-22 16:39 | 23.60631 | 58.26297 | 40 ft | 137 kts | 85° |
| 2026-04-22 16:39 | 23.60701 | 58.27184 | 37 ft | 85 kts | 84° |
| 2026-04-22 16:39 | 23.60737 | 58.27629 | 37 ft | 31 kts | 85° |
| 2026-04-22 16:39 | 23.60742 | 58.27702 | 37 ft | 10 kts | 85° |
| 2026-04-22 16:40 | 23.60757 | 58.27894 | 37 ft | 33 kts | 85° |
| 2026-04-22 16:40 | 23.60778 | 58.28183 | 37 ft | 45 kts | 85° |
| 2026-04-22 16:40 | 23.60558 | 58.28744 | 37 ft | 32 kts | 97° |
| 2026-04-22 16:41 | 23.60505 | 58.28850 | 37 ft | 9 kts | 180° |
| 2026-04-22 16:41 | 23.60432 | 58.28856 | 37 ft | 12 kts | 175° |
| 2026-04-22 16:41 | 23.60365 | 58.28854 | 37 ft | 6 kts | 211° |
| 2026-04-22 16:41 | 23.60341 | 58.28810 | 37 ft | 4 kts | 257° |
| 2026-04-22 16:42 | 23.60339 | 58.28794 | 37 ft | 0 kts | 263° |
| 2026-04-22 16:42 | 23.60338 | 58.28788 | 37 ft | 0 kts | 264° |
| 2026-04-22 16:42 | 23.60338 | 58.28785 | 37 ft | 0 kts | 264° |